Terminal Aerodrome Forecast
Issued by NWS

Home | Current Version | Previous Version | Text Only | Print | Product List | Glossary On
Versions: 1 2 3 4 5 6 7 8 9 10 11 12 13 14 15 16 17
363
FTUS43 KGRB 290522
TAFCWA
TAF
KCWA 290522Z 2906/3006 04005KT P6SM VCSH SCT040 OVC080
      TEMPO 2906/2910 -SHRA BKN040
     FM291000 01003KT P6SM VCSH SCT025 OVC050
     FM291400 06005KT P6SM BKN050
     FM292000 08006KT P6SM SCT050 BKN120
     FM300000 08004KT P6SM SCT120 SCT250
      AMD LTD TO CLD VIS AND WIND TIL 11Z=

USA.gov is the U.S. government's official web portal to all federal, state and local government web resources and services.